createdAt,value
2022-09-06T00:00:42.984Z,3.80
2022-09-06T00:03:09.798Z,3.85
2022-09-06T00:05:36.938Z,3.97
2022-09-06T00:08:05.029Z,3.70
2022-09-06T00:10:32.652Z,3.65
2022-09-06T00:13:07.356Z,3.78
2022-09-06T00:15:35.184Z,3.83
2022-09-06T00:18:03.515Z,4.13
2022-09-06T00:20:31.220Z,4.07
2022-09-06T00:23:02.141Z,4.47
2022-09-06T00:25:29.528Z,4.20
2022-09-06T00:28:03.279Z,3.33
2022-09-06T00:30:31.384Z,4.03
2022-09-06T00:32:58.602Z,3.50
2022-09-06T00:35:26.293Z,4.00
2022-09-06T00:37:57.920Z,4.32
2022-09-06T00:40:24.689Z,3.70
2022-09-06T00:42:51.909Z,4.20
2022-09-06T00:45:19.023Z,3.65
2022-09-06T00:47:45.887Z,3.85
2022-09-06T00:50:14.240Z,3.47
2022-09-06T00:52:41.367Z,4.03
2022-09-06T00:55:08.408Z,3.50
2022-09-06T00:57:35.368Z,3.78
2022-09-06T01:00:04.364Z,3.72
2022-09-06T01:02:31.185Z,3.95
2022-09-06T01:04:58.243Z,3.90
2022-09-06T01:07:38.415Z,4.03
2022-09-06T01:10:32.667Z,4.88
2022-09-06T01:13:08.640Z,3.70
2022-09-06T01:15:56.838Z,4.10
2022-09-06T01:18:33.527Z,4.15
2022-09-06T01:21:12.396Z,4.07
2022-09-06T01:24:16.847Z,4.32
2022-09-06T01:27:07.669Z,3.95
2022-09-06T01:29:39.909Z,4.00
2022-09-06T01:32:22.715Z,3.78
2022-09-06T01:35:11.776Z,3.85
2022-09-06T01:37:38.507Z,3.78
2022-09-06T01:40:05.797Z,3.92
2022-09-06T01:42:33.410Z,4.35
2022-09-06T01:45:02.729Z,4.43
2022-09-06T01:47:38.678Z,3.92
2022-09-06T01:50:24.316Z,4.13
2022-09-06T01:53:01.357Z,4.47
2022-09-06T01:55:35.793Z,4.18
2022-09-06T01:58:29.620Z,3.70
2022-09-06T02:01:05.341Z,3.50
2022-09-06T02:04:01.248Z,3.80
2022-09-06T02:06:31.168Z,4.10
2022-09-06T02:09:10.759Z,4.00
2022-09-06T02:11:42.298Z,4.10
2022-09-06T02:14:15.528Z,3.57
2022-09-06T02:16:44.429Z,4.30
2022-09-06T02:19:33.393Z,4.15
2022-09-06T02:22:02.075Z,4.20
2022-09-06T02:24:31.235Z,4.45
2022-09-06T02:26:58.035Z,3.72
2022-09-06T02:29:25.006Z,4.30
2022-09-06T02:32:00.962Z,4.22
2022-09-06T02:34:27.809Z,4.22
2022-09-06T02:36:55.648Z,5.40
2022-09-06T02:39:22.559Z,5.05
2022-09-06T02:41:49.471Z,4.53
2022-09-06T02:44:16.251Z,4.68
2022-09-06T02:46:42.977Z,5.30
2022-09-06T02:49:09.940Z,4.93
2022-09-06T02:51:38.731Z,4.45
2022-09-06T02:54:06.471Z,4.30
2022-09-06T02:56:33.918Z,5.25
2022-09-06T02:59:00.840Z,4.40
2022-09-06T03:01:28.007Z,4.07
2022-09-06T03:03:54.804Z,5.03
2022-09-06T03:06:21.578Z,4.40
2022-09-06T03:08:48.420Z,5.97
2022-09-06T03:11:16.852Z,5.18
2022-09-06T03:13:43.504Z,4.72
2022-09-06T03:16:10.352Z,5.35
2022-09-06T03:18:37.088Z,5.20
2022-09-06T03:21:04.082Z,6.15
2022-09-06T03:23:30.900Z,6.40
2022-09-06T03:25:57.740Z,6.38
2022-09-06T03:28:24.554Z,6.05
2022-09-06T03:30:51.987Z,7.10
2022-09-06T03:33:19.722Z,6.95
2022-09-06T03:35:54.396Z,6.32
2022-09-06T03:38:21.875Z,6.32
2022-09-06T03:40:49.282Z,7.50
2022-09-06T03:43:17.248Z,7.47
2022-09-06T03:45:48.314Z,7.47
2022-09-06T03:48:16.144Z,7.63
2022-09-06T03:50:50.517Z,7.03
2022-09-06T03:53:17.977Z,8.30
2022-09-06T03:55:46.483Z,7.57
2022-09-06T03:58:13.274Z,7.40
2022-09-06T04:00:40.079Z,7.72
2022-09-06T04:03:06.804Z,6.95
2022-09-06T04:05:33.560Z,6.50
2022-09-06T04:08:00.567Z,6.93
2022-09-06T04:10:27.228Z,6.57
2022-09-06T04:12:54.186Z,7.13
2022-09-06T04:15:21.018Z,7.78
2022-09-06T04:17:47.837Z,7.93
2022-09-06T04:20:14.919Z,7.28
2022-09-06T04:22:42.059Z,7.18
2022-09-06T04:25:09.143Z,7.20
2022-09-06T04:27:35.835Z,8.48
2022-09-06T04:30:02.507Z,7.68
2022-09-06T04:32:29.280Z,7.57
2022-09-06T04:34:55.983Z,7.88
2022-09-06T04:37:22.707Z,7.85
2022-09-06T04:39:49.400Z,8.32
2022-09-06T04:42:16.259Z,7.88
2022-09-06T04:44:42.964Z,7.47
2022-09-06T04:47:15.031Z,9.02
2022-09-06T04:49:42.507Z,8.77
2022-09-06T04:52:09.398Z,8.23
2022-09-06T04:54:36.334Z,7.88
2022-09-06T04:57:03.315Z,7.63
2022-09-06T04:59:30.422Z,7.97
2022-09-06T05:01:57.437Z,8.20
2022-09-06T05:04:24.367Z,7.05
2022-09-06T05:07:00.557Z,7.38
2022-09-06T05:09:27.271Z,8.27
2022-09-06T05:11:54.583Z,7.55
2022-09-06T05:14:21.948Z,7.82
2022-09-06T05:16:48.680Z,8.25
2022-09-06T05:19:15.471Z,7.30
2022-09-06T05:21:42.304Z,7.65
2022-09-06T05:24:08.966Z,7.90
2022-09-06T05:26:35.897Z,7.05
2022-09-06T05:29:02.657Z,6.45
2022-09-06T05:31:31.580Z,7.20
2022-09-06T05:33:58.833Z,7.00
2022-09-06T05:36:26.885Z,7.28
2022-09-06T05:38:54.908Z,7.50
2022-09-06T05:41:22.546Z,7.10
2022-09-06T05:43:49.470Z,7.28
2022-09-06T05:46:17.081Z,7.82
2022-09-06T05:48:44.008Z,6.97
2022-09-06T05:51:12.849Z,7.57
2022-09-06T05:53:44.445Z,7.70
2022-09-06T05:56:12.907Z,7.40
2022-09-06T05:58:39.725Z,7.07
2022-09-06T06:01:19.996Z,7.35
2022-09-06T06:03:54.816Z,7.45
2022-09-06T06:06:23.703Z,7.40
2022-09-06T06:08:50.625Z,7.88
2022-09-06T06:11:17.573Z,7.75
2022-09-06T06:13:44.645Z,7.55
2022-09-06T06:16:13.867Z,7.03
2022-09-06T06:18:41.373Z,7.95
2022-09-06T06:21:11.841Z,7.80
2022-09-06T06:23:39.175Z,8.40
2022-09-06T06:26:06.563Z,7.70
2022-09-06T06:28:35.684Z,7.72
2022-09-06T06:31:03.924Z,7.65
2022-09-06T06:33:30.668Z,7.60
2022-09-06T06:36:01.903Z,7.30
2022-09-06T06:38:37.565Z,7.70
2022-09-06T06:41:06.990Z,7.65
2022-09-06T06:43:38.018Z,7.57
2022-09-06T06:46:06.129Z,8.05
2022-09-06T06:48:32.939Z,8.27
2022-09-06T06:50:59.722Z,6.95
2022-09-06T06:53:26.830Z,7.95
2022-09-06T06:55:54.205Z,7.32
2022-09-06T06:58:21.488Z,7.07
2022-09-06T07:00:48.348Z,7.35
2022-09-06T07:03:15.166Z,6.70
2022-09-06T07:08:34.046Z,6.68
2022-09-06T07:11:00.743Z,5.78
2022-09-06T07:13:27.522Z,5.50
2022-09-06T07:16:15.178Z,5.65
2022-09-06T07:18:46.029Z,4.90
2022-09-06T07:26:30.704Z,5.53
2022-09-06T07:29:03.188Z,5.43
2022-09-06T07:34:18.102Z,4.15
2022-09-06T07:36:55.631Z,4.43
2022-09-06T07:39:25.556Z,4.70
2022-09-06T07:41:52.311Z,4.95
2022-09-06T07:44:19.011Z,4.78
2022-09-06T07:46:46.371Z,4.40
2022-09-06T07:49:13.121Z,4.22
2022-09-06T07:51:39.892Z,4.65
2022-09-06T07:54:28.927Z,4.60
2022-09-06T07:56:53.804Z,4.53
2022-09-06T07:59:20.592Z,4.32
2022-09-06T08:01:48.364Z,4.25
2022-09-06T08:04:15.296Z,4.50
2022-09-06T08:09:35.001Z,4.25
2022-09-06T08:12:07.057Z,4.30
2022-09-06T08:17:00.760Z,4.35
2022-09-06T08:19:27.446Z,4.03
2022-09-06T08:21:57.588Z,3.83
2022-09-06T08:24:24.860Z,4.03
2022-09-06T08:26:51.592Z,3.78
2022-09-06T08:29:19.947Z,3.85
2022-09-06T08:31:47.058Z,3.75
2022-09-06T08:34:15.198Z,3.90
2022-09-06T08:36:42.651Z,3.58
2022-09-06T08:39:10.195Z,4.10
2022-09-06T08:41:56.671Z,3.25
2022-09-06T08:45:00.254Z,3.42
2022-09-06T08:47:26.951Z,3.25
2022-09-06T08:50:05.922Z,3.25
2022-09-06T08:53:16.278Z,3.25
2022-09-06T08:56:00.084Z,3.03
2022-09-06T08:58:37.293Z,3.35
2022-09-06T09:01:08.400Z,3.25
2022-09-06T09:03:37.422Z,3.00
2022-09-06T09:06:07.159Z,3.42
2022-09-06T09:08:39.776Z,3.63
2022-09-06T09:11:08.524Z,3.15
2022-09-06T09:13:45.604Z,3.78
2022-09-06T09:16:12.900Z,3.97
2022-09-06T09:18:43.641Z,3.97
2022-09-06T09:21:10.481Z,3.38
2022-09-06T09:23:37.338Z,3.45
2022-09-06T09:26:06.535Z,3.50
2022-09-06T09:28:33.406Z,3.50
2022-09-06T09:31:00.186Z,3.20
2022-09-06T09:33:36.000Z,3.92
2022-09-06T09:36:25.944Z,3.60
2022-09-06T09:38:54.322Z,3.75
2022-09-06T09:41:34.232Z,3.08
2022-09-06T09:44:04.988Z,3.72
2022-09-06T09:46:34.366Z,3.75
2022-09-06T09:49:12.470Z,2.75
2022-09-06T09:51:44.584Z,3.60
2022-09-06T09:56:46.242Z,3.15
2022-09-06T09:59:21.225Z,3.43
2022-09-06T10:01:47.972Z,3.45
2022-09-06T10:04:44.214Z,4.13
2022-09-06T10:07:17.186Z,3.42
2022-09-06T10:09:46.731Z,2.80
2022-09-06T10:12:28.579Z,3.08
2022-09-06T10:14:55.931Z,4.25
2022-09-06T10:17:31.958Z,3.35
2022-09-06T10:20:10.559Z,3.63
2022-09-06T10:22:46.163Z,4.47
2022-09-06T10:25:31.971Z,3.55
2022-09-06T10:28:24.218Z,3.00
2022-09-06T10:31:11.770Z,3.28
2022-09-06T10:34:15.810Z,3.67
2022-09-06T10:36:56.875Z,3.00
2022-09-06T10:39:30.044Z,3.40
2022-09-06T10:42:15.733Z,3.08
2022-09-06T10:45:05.642Z,3.20
2022-09-06T10:47:56.538Z,3.15
2022-09-06T10:50:31.239Z,2.63
2022-09-06T10:53:04.848Z,2.53
2022-09-06T10:55:32.617Z,2.72
2022-09-06T10:58:20.644Z,1.90
2022-09-06T11:00:49.056Z,2.03
2022-09-06T11:06:28.860Z,2.22
2022-09-06T11:09:16.895Z,2.90
2022-09-06T11:12:12.858Z,2.33
2022-09-06T11:14:40.409Z,2.63
2022-09-06T11:17:11.633Z,2.95
2022-09-06T11:20:00.017Z,2.97
2022-09-06T11:22:42.718Z,3.38
2022-09-06T11:25:24.667Z,2.92
2022-09-06T11:27:57.952Z,3.30
2022-09-06T11:30:25.733Z,2.80
2022-09-06T11:33:09.033Z,3.88
2022-09-06T11:35:36.348Z,2.78
2022-09-06T11:38:05.613Z,3.30
2022-09-06T11:40:46.996Z,2.97
2022-09-06T11:43:32.385Z,3.00
2022-09-06T11:45:59.145Z,2.40
2022-09-06T11:48:34.334Z,3.17
2022-09-06T11:51:07.322Z,3.67
2022-09-06T11:53:49.029Z,2.65
2022-09-06T11:56:46.616Z,3.08
2022-09-06T11:59:15.996Z,3.33
2022-09-06T12:01:59.935Z,2.42
2022-09-06T12:05:01.394Z,3.03
2022-09-06T12:07:29.301Z,2.92
2022-09-06T12:09:56.254Z,2.90
2022-09-06T12:12:40.991Z,3.10
2022-09-06T12:15:30.832Z,3.33
2022-09-06T12:17:59.009Z,3.10
2022-09-06T12:20:54.405Z,2.70
2022-09-06T12:23:50.261Z,2.97
2022-09-06T12:26:55.597Z,3.22
2022-09-06T12:29:25.517Z,2.78
2022-09-06T12:31:54.653Z,3.03
2022-09-06T12:34:27.306Z,3.10
2022-09-06T12:36:54.038Z,2.92
2022-09-06T12:39:23.880Z,2.83
2022-09-06T12:41:55.145Z,2.65
2022-09-06T12:44:29.401Z,2.90
2022-09-06T12:47:01.189Z,3.13
2022-09-06T12:49:27.900Z,3.42
2022-09-06T12:52:06.625Z,3.80
2022-09-06T12:54:33.314Z,2.88
2022-09-06T12:57:20.291Z,2.85
2022-09-06T12:59:48.535Z,2.78
2022-09-06T13:02:19.322Z,2.97
2022-09-06T13:05:01.463Z,3.10
2022-09-06T13:07:29.191Z,2.90
2022-09-06T13:09:56.607Z,3.00
2022-09-06T13:12:29.699Z,2.95
2022-09-06T13:14:57.843Z,3.03
2022-09-06T13:17:27.088Z,3.25
2022-09-06T13:19:53.976Z,3.40
2022-09-06T13:22:42.962Z,3.60
2022-09-06T13:25:17.542Z,2.53
2022-09-06T13:27:58.219Z,2.70
2022-09-06T13:30:38.758Z,2.50
2022-09-06T13:33:07.351Z,2.63
2022-09-06T13:35:37.867Z,3.10
2022-09-06T13:38:43.464Z,2.85
2022-09-06T13:41:25.026Z,2.78
2022-09-06T13:44:27.155Z,2.75
2022-09-06T13:46:55.373Z,2.40
2022-09-06T13:49:25.989Z,2.40
2022-09-06T13:51:53.768Z,2.67
2022-09-06T13:54:20.478Z,2.58
2022-09-06T13:56:48.638Z,2.55
2022-09-06T13:59:16.033Z,2.72
2022-09-06T14:01:44.315Z,2.58
2022-09-06T14:04:16.110Z,2.47
2022-09-06T14:06:42.838Z,2.13
2022-09-06T14:09:09.982Z,2.45
2022-09-06T14:11:36.880Z,2.80
2022-09-06T14:14:04.195Z,2.80
2022-09-06T14:16:31.659Z,2.67
2022-09-06T14:18:58.378Z,2.85
2022-09-06T14:21:25.079Z,2.75
2022-09-06T14:23:52.694Z,2.42
2022-09-06T14:26:21.221Z,3.00
2022-09-06T14:28:48.174Z,3.00
2022-09-06T14:31:17.483Z,2.50
2022-09-06T14:33:44.385Z,2.47
2022-09-06T14:36:14.312Z,2.55
2022-09-06T14:38:42.516Z,3.17
2022-09-06T14:41:09.957Z,2.65
2022-09-06T14:43:37.117Z,2.90
2022-09-06T14:46:08.436Z,2.60
2022-09-06T14:48:39.160Z,2.78
2022-09-06T14:51:12.664Z,3.08
2022-09-06T14:53:44.031Z,3.58
2022-09-06T14:56:11.304Z,3.70
2022-09-06T14:58:39.180Z,4.07
2022-09-06T15:01:28.737Z,3.95
2022-09-06T15:03:58.190Z,3.67
2022-09-06T15:06:26.589Z,4.00
2022-09-06T15:08:58.535Z,3.97
2022-09-06T15:11:34.711Z,5.32
2022-09-06T15:14:02.974Z,4.82
2022-09-06T15:16:30.042Z,4.47
2022-09-06T15:18:56.887Z,5.03
2022-09-06T15:21:24.813Z,4.80
2022-09-06T15:23:52.790Z,4.78
2022-09-06T15:26:19.503Z,5.35
2022-09-06T15:28:46.186Z,5.38
2022-09-06T15:31:13.769Z,4.78
2022-09-06T15:33:41.207Z,4.93
2022-09-06T15:36:09.620Z,5.05
2022-09-06T15:38:41.835Z,5.18
2022-09-06T15:43:42.244Z,5.82
2022-09-06T15:46:09.907Z,5.78
2022-09-06T15:48:42.002Z,6.05
2022-09-06T15:51:09.367Z,6.72
2022-09-06T15:53:36.273Z,6.95
2022-09-06T15:56:04.235Z,5.65
2022-09-06T15:58:31.333Z,5.40
2022-09-06T16:01:00.991Z,5.03
2022-09-06T16:03:28.082Z,4.72
2022-09-06T16:08:41.965Z,4.97
2022-09-06T16:11:13.975Z,4.57
2022-09-06T16:13:41.545Z,4.95
2022-09-06T16:16:11.588Z,5.00
2022-09-06T16:18:40.321Z,5.53
2022-09-06T16:21:08.818Z,5.35
2022-09-06T16:23:37.023Z,5.82
2022-09-06T16:26:04.724Z,5.85
2022-09-06T16:28:33.701Z,5.00
2022-09-06T16:31:02.296Z,5.15
2022-09-06T16:33:29.776Z,5.20
2022-09-06T16:35:59.604Z,5.25
2022-09-06T16:38:33.098Z,4.85
2022-09-06T16:41:02.148Z,4.57
2022-09-06T16:43:28.865Z,5.20
2022-09-06T16:46:00.429Z,5.03
2022-09-06T16:48:27.688Z,4.55
2022-09-06T16:50:55.024Z,4.65
2022-09-06T16:53:22.326Z,4.30
2022-09-06T16:55:49.945Z,4.20
2022-09-06T16:58:17.028Z,3.83
2022-09-06T17:00:47.331Z,3.10
2022-09-06T17:03:14.327Z,3.63
2022-09-06T17:05:41.294Z,3.78
2022-09-06T17:08:08.463Z,3.30
2022-09-06T17:10:38.378Z,3.97
2022-09-06T17:13:05.076Z,3.40
2022-09-06T17:15:51.760Z,2.97
2022-09-06T17:18:18.424Z,3.53
2022-09-06T17:20:57.769Z,3.95
2022-09-06T17:23:25.273Z,3.35
2022-09-06T17:25:52.425Z,4.65
2022-09-06T17:28:20.091Z,3.33
2022-09-06T17:30:46.905Z,3.80
2022-09-06T17:33:13.680Z,3.72
2022-09-06T17:35:40.360Z,4.32
2022-09-06T17:38:07.376Z,4.07
2022-09-06T17:40:34.114Z,3.78
2022-09-06T17:43:01.351Z,3.92
2022-09-06T17:45:29.234Z,3.00
2022-09-06T17:47:56.174Z,3.40
2022-09-06T17:50:23.723Z,3.47
2022-09-06T17:52:51.642Z,3.60
2022-09-06T17:55:18.802Z,3.03
2022-09-06T17:57:45.461Z,4.03
2022-09-06T18:00:14.116Z,4.22
2022-09-06T18:02:40.776Z,4.30
2022-09-06T18:05:07.961Z,4.15
2022-09-06T18:07:34.629Z,4.75
2022-09-06T18:10:01.299Z,4.80
2022-09-06T18:12:27.998Z,4.85
2022-09-06T18:14:54.916Z,4.50
2022-09-06T18:17:21.771Z,4.30
2022-09-06T18:19:48.475Z,4.35
2022-09-06T18:22:15.235Z,4.38
2022-09-06T18:24:41.953Z,4.10
2022-09-06T18:27:08.712Z,4.40
2022-09-06T18:29:35.478Z,4.70
2022-09-06T18:32:03.050Z,4.03
2022-09-06T18:34:29.782Z,4.53
2022-09-06T18:36:56.520Z,4.60
2022-09-06T18:39:23.284Z,4.63
2022-09-06T18:42:01.893Z,4.50
2022-09-06T18:44:32.949Z,4.45
2022-09-06T18:47:05.692Z,4.17
2022-09-06T18:49:33.869Z,4.47
2022-09-06T18:52:02.150Z,5.07
2022-09-06T18:54:29.385Z,4.32
2022-09-06T18:56:56.472Z,5.00
2022-09-06T18:59:23.361Z,5.88
2022-09-06T19:01:50.240Z,5.97
2022-09-06T19:04:17.373Z,5.55
2022-09-06T19:06:44.889Z,5.70
2022-09-06T19:09:13.857Z,6.18
2022-09-06T19:11:45.690Z,5.88
2022-09-06T19:14:13.084Z,5.80
2022-09-06T19:16:40.249Z,5.25
2022-09-06T19:19:09.917Z,6.05
2022-09-06T19:21:40.949Z,5.95
2022-09-06T19:24:10.571Z,4.70
2022-09-06T19:26:38.988Z,5.32
2022-09-06T19:29:09.063Z,5.85
2022-09-06T19:31:37.572Z,4.80
2022-09-06T19:34:04.792Z,5.15
2022-09-06T19:36:32.096Z,5.25
2022-09-06T19:39:05.034Z,6.00
2022-09-06T19:41:36.353Z,6.47
2022-09-06T19:44:05.897Z,5.40
2022-09-06T19:46:33.181Z,5.50
2022-09-06T19:49:00.645Z,4.90
2022-09-06T19:51:27.478Z,5.25
2022-09-06T19:53:57.832Z,5.97
2022-09-06T19:56:33.774Z,5.22
2022-09-06T19:59:03.370Z,5.80
2022-09-06T20:01:31.557Z,5.70
2022-09-06T20:03:59.440Z,6.07
2022-09-06T20:06:27.238Z,6.25
2022-09-06T20:08:56.173Z,6.07
2022-09-06T20:11:26.426Z,5.88
2022-09-06T20:13:53.164Z,5.93
2022-09-06T20:16:21.048Z,6.45
2022-09-06T20:18:48.573Z,5.82
2022-09-06T20:21:17.874Z,5.80
2022-09-06T20:23:49.241Z,6.20
2022-09-06T20:26:16.165Z,5.63
2022-09-06T20:28:44.168Z,6.07
2022-09-06T20:31:13.831Z,6.80
2022-09-06T20:33:40.746Z,5.80
2022-09-06T20:36:09.433Z,6.03
2022-09-06T20:38:42.277Z,5.68
2022-09-06T20:41:35.162Z,5.32
2022-09-06T20:44:02.356Z,5.28
2022-09-06T20:46:32.360Z,5.20
2022-09-06T20:49:05.242Z,5.38
2022-09-06T20:51:33.484Z,6.13
2022-09-06T20:54:01.689Z,4.65
2022-09-06T20:56:35.090Z,5.22
2022-09-06T20:59:04.631Z,4.97
2022-09-06T21:01:35.267Z,5.38
2022-09-06T21:04:04.905Z,5.35
2022-09-06T21:06:36.600Z,5.05
2022-09-06T21:09:08.992Z,5.00
2022-09-06T21:14:04.316Z,5.25
2022-09-06T21:16:32.005Z,4.80
2022-09-06T21:19:06.680Z,5.03
2022-09-06T21:21:34.991Z,4.97
2022-09-06T21:24:02.944Z,5.05
2022-09-06T21:26:29.661Z,4.75
2022-09-06T21:28:56.959Z,5.60
2022-09-06T21:31:31.478Z,5.57
2022-09-06T21:34:03.107Z,5.72
2022-09-06T21:36:35.843Z,5.07
2022-09-06T21:39:05.784Z,4.63
2022-09-06T21:41:35.142Z,4.45
2022-09-06T21:44:02.875Z,4.57
2022-09-06T21:46:33.480Z,5.32
2022-09-06T21:49:14.074Z,4.57
2022-09-06T21:51:41.228Z,5.00
2022-09-06T21:54:08.757Z,4.70
2022-09-06T21:56:37.113Z,4.13
2022-09-06T21:59:04.992Z,4.78
2022-09-06T22:01:33.522Z,3.92
2022-09-06T22:04:00.572Z,4.60
2022-09-06T22:06:29.108Z,4.30
2022-09-06T22:08:57.602Z,4.25
2022-09-06T22:11:30.434Z,4.22
2022-09-06T22:14:02.373Z,3.50
2022-09-06T22:16:30.220Z,4.40
2022-09-06T22:18:57.210Z,3.72
2022-09-06T22:21:24.558Z,4.22
2022-09-06T22:24:11.502Z,3.35
2022-09-06T22:26:40.006Z,3.33
2022-09-06T22:29:08.408Z,3.47
2022-09-06T22:31:36.320Z,3.83
2022-09-06T22:34:04.196Z,3.47
2022-09-06T22:36:31.005Z,3.78
2022-09-06T22:38:58.661Z,3.30
2022-09-06T22:41:27.191Z,2.78
2022-09-06T22:43:54.045Z,3.10
2022-09-06T22:46:20.858Z,3.00
2022-09-06T22:48:47.826Z,3.67
2022-09-06T22:51:14.457Z,3.47
2022-09-06T22:53:41.193Z,3.60
2022-09-06T22:56:07.890Z,3.50
2022-09-06T22:58:35.520Z,3.45
2022-09-06T23:01:09.414Z,3.15
2022-09-06T23:03:36.854Z,3.65
2022-09-06T23:06:04.263Z,3.30
2022-09-06T23:08:32.308Z,3.75
2022-09-06T23:11:04.187Z,3.63
2022-09-06T23:13:31.078Z,3.60
2022-09-06T23:16:03.091Z,2.88
2022-09-06T23:18:29.948Z,2.67
2022-09-06T23:20:57.497Z,2.90
2022-09-06T23:23:24.244Z,2.88
2022-09-06T23:25:50.936Z,2.88
2022-09-06T23:28:17.597Z,2.88
2022-09-06T23:30:44.309Z,3.38
2022-09-06T23:33:10.983Z,2.97
2022-09-06T23:35:39.348Z,3.17
2022-09-06T23:38:06.042Z,2.90
2022-09-06T23:40:32.932Z,2.80
2022-09-06T23:42:59.573Z,2.67
2022-09-06T23:45:26.229Z,3.10
2022-09-06T23:47:52.823Z,2.45
2022-09-06T23:50:19.496Z,2.38
2022-09-06T23:52:46.342Z,2.45
2022-09-06T23:55:12.971Z,2.50
2022-09-06T23:57:39.609Z,2.60
